sensor_id;sensor_type;location;lat;lon;timestamp;P1;durP1;ratioP1;P2;durP2;ratioP2
11006;SDS011;8186;57.652;11.968;2022-09-28T00:00:18;7.60;;;6.77;;
11006;SDS011;8186;57.652;11.968;2022-09-28T00:02:45;6.53;;;5.93;;
11006;SDS011;8186;57.652;11.968;2022-09-28T00:05:12;7.20;;;6.60;;
11006;SDS011;8186;57.652;11.968;2022-09-28T00:07:41;7.00;;;6.30;;
11006;SDS011;8186;57.652;11.968;2022-09-28T00:10:08;7.17;;;6.47;;
11006;SDS011;8186;57.652;11.968;2022-09-28T00:12:35;6.90;;;6.30;;
11006;SDS011;8186;57.652;11.968;2022-09-28T00:15:03;7.00;;;6.40;;
11006;SDS011;8186;57.652;11.968;2022-09-28T00:17:30;8.10;;;6.97;;
11006;SDS011;8186;57.652;11.968;2022-09-28T00:19:57;7.23;;;6.43;;
11006;SDS011;8186;57.652;11.968;2022-09-28T00:22:23;6.63;;;6.03;;
11006;SDS011;8186;57.652;11.968;2022-09-28T00:24:52;7.47;;;6.77;;
11006;SDS011;8186;57.652;11.968;2022-09-28T00:27:19;10.20;;;7.27;;
11006;SDS011;8186;57.652;11.968;2022-09-28T00:29:45;6.97;;;6.37;;
11006;SDS011;8186;57.652;11.968;2022-09-28T00:32:12;7.47;;;6.87;;
11006;SDS011;8186;57.652;11.968;2022-09-28T00:34:41;7.93;;;6.83;;
11006;SDS011;8186;57.652;11.968;2022-09-28T00:37:10;8.17;;;7.37;;
11006;SDS011;8186;57.652;11.968;2022-09-28T00:39:38;7.23;;;6.63;;
11006;SDS011;8186;57.652;11.968;2022-09-28T00:42:11;7.33;;;6.73;;
11006;SDS011;8186;57.652;11.968;2022-09-28T00:44:45;7.63;;;7.03;;
11006;SDS011;8186;57.652;11.968;2022-09-28T00:47:18;8.37;;;7.67;;
11006;SDS011;8186;57.652;11.968;2022-09-28T00:49:51;7.33;;;6.73;;
11006;SDS011;8186;57.652;11.968;2022-09-28T00:52:21;7.47;;;6.87;;
11006;SDS011;8186;57.652;11.968;2022-09-28T00:54:52;10.03;;;7.50;;
11006;SDS011;8186;57.652;11.968;2022-09-28T00:57:20;7.33;;;6.63;;
11006;SDS011;8186;57.652;11.968;2022-09-28T00:59:48;7.67;;;6.60;;
11006;SDS011;8186;57.652;11.968;2022-09-28T01:02:15;7.80;;;7.20;;
11006;SDS011;8186;57.652;11.968;2022-09-28T01:04:42;7.13;;;6.53;;
11006;SDS011;8186;57.652;11.968;2022-09-28T01:07:09;9.33;;;7.13;;
11006;SDS011;8186;57.652;11.968;2022-09-28T01:09:37;7.13;;;5.90;;
11006;SDS011;8186;57.652;11.968;2022-09-28T01:12:05;6.27;;;5.67;;
11006;SDS011;8186;57.652;11.968;2022-09-28T01:14:33;6.63;;;5.97;;
11006;SDS011;8186;57.652;11.968;2022-09-28T01:17:04;6.23;;;5.63;;
11006;SDS011;8186;57.652;11.968;2022-09-28T01:22:44;7.00;;;6.30;;
11006;SDS011;8186;57.652;11.968;2022-09-28T01:25:38;6.57;;;6.07;;
11006;SDS011;8186;57.652;11.968;2022-09-28T01:28:08;6.70;;;6.10;;
11006;SDS011;8186;57.652;11.968;2022-09-28T01:30:40;7.10;;;6.40;;
11006;SDS011;8186;57.652;11.968;2022-09-28T01:33:09;6.87;;;6.20;;
11006;SDS011;8186;57.652;11.968;2022-09-28T01:35:39;7.07;;;6.47;;
11006;SDS011;8186;57.652;11.968;2022-09-28T01:38:08;7.60;;;6.83;;
11006;SDS011;8186;57.652;11.968;2022-09-28T01:40:38;7.30;;;6.60;;
11006;SDS011;8186;57.652;11.968;2022-09-28T01:43:06;6.93;;;6.33;;
11006;SDS011;8186;57.652;11.968;2022-09-28T01:45:37;6.90;;;6.30;;
11006;SDS011;8186;57.652;11.968;2022-09-28T01:48:07;7.80;;;7.03;;
11006;SDS011;8186;57.652;11.968;2022-09-28T01:50:37;7.23;;;6.53;;
11006;SDS011;8186;57.652;11.968;2022-09-28T01:53:07;6.90;;;6.30;;
11006;SDS011;8186;57.652;11.968;2022-09-28T01:55:38;7.03;;;6.30;;
11006;SDS011;8186;57.652;11.968;2022-09-28T01:58:09;6.70;;;6.00;;
11006;SDS011;8186;57.652;11.968;2022-09-28T02:00:38;7.53;;;6.37;;
11006;SDS011;8186;57.652;11.968;2022-09-28T02:03:08;6.10;;;5.60;;
11006;SDS011;8186;57.652;11.968;2022-09-28T02:05:38;6.10;;;5.60;;
11006;SDS011;8186;57.652;11.968;2022-09-28T02:08:07;7.83;;;5.97;;
11006;SDS011;8186;57.652;11.968;2022-09-28T02:10:37;6.13;;;5.63;;
11006;SDS011;8186;57.652;11.968;2022-09-28T02:13:07;6.07;;;5.47;;
11006;SDS011;8186;57.652;11.968;2022-09-28T02:15:39;5.77;;;5.27;;
11006;SDS011;8186;57.652;11.968;2022-09-28T02:18:08;7.17;;;5.90;;
11006;SDS011;8186;57.652;11.968;2022-09-28T02:20:35;6.00;;;5.47;;
11006;SDS011;8186;57.652;11.968;2022-09-28T02:23:04;5.73;;;5.23;;
11006;SDS011;8186;57.652;11.968;2022-09-28T02:25:33;6.30;;;5.70;;
11006;SDS011;8186;57.652;11.968;2022-09-28T02:28:04;5.53;;;5.03;;
11006;SDS011;8186;57.652;11.968;2022-09-28T02:30:34;6.23;;;5.63;;
11006;SDS011;8186;57.652;11.968;2022-09-28T02:33:02;5.23;;;4.83;;
11006;SDS011;8186;57.652;11.968;2022-09-28T02:35:32;5.10;;;4.70;;
11006;SDS011;8186;57.652;11.968;2022-09-28T02:37:59;6.37;;;4.97;;
11006;SDS011;8186;57.652;11.968;2022-09-28T02:40:28;5.40;;;4.90;;
11006;SDS011;8186;57.652;11.968;2022-09-28T02:42:58;5.50;;;5.00;;
11006;SDS011;8186;57.652;11.968;2022-09-28T02:45:40;5.50;;;5.00;;
11006;SDS011;8186;57.652;11.968;2022-09-28T02:48:18;5.80;;;5.27;;
11006;SDS011;8186;57.652;11.968;2022-09-28T02:50:58;5.40;;;4.90;;
11006;SDS011;8186;57.652;11.968;2022-09-28T02:53:34;6.13;;;5.60;;
11006;SDS011;8186;57.652;11.968;2022-09-28T02:56:17;7.13;;;5.73;;
11006;SDS011;8186;57.652;11.968;2022-09-28T02:58:52;6.40;;;5.80;;
11006;SDS011;8186;57.652;11.968;2022-09-28T03:01:26;6.73;;;6.13;;
11006;SDS011;8186;57.652;11.968;2022-09-28T03:03:56;7.57;;;6.60;;
11006;SDS011;8186;57.652;11.968;2022-09-28T03:06:29;7.67;;;6.83;;
11006;SDS011;8186;57.652;11.968;2022-09-28T03:08:59;7.83;;;7.23;;
11006;SDS011;8186;57.652;11.968;2022-09-28T03:11:29;7.90;;;7.20;;
11006;SDS011;8186;57.652;11.968;2022-09-28T03:13:59;8.43;;;7.73;;
11006;SDS011;8186;57.652;11.968;2022-09-28T03:16:28;8.50;;;7.80;;
11006;SDS011;8186;57.652;11.968;2022-09-28T03:18:56;10.27;;;8.40;;
11006;SDS011;8186;57.652;11.968;2022-09-28T03:21:23;8.23;;;7.53;;
11006;SDS011;8186;57.652;11.968;2022-09-28T03:23:49;9.40;;;8.17;;
11006;SDS011;8186;57.652;11.968;2022-09-28T03:26:16;9.33;;;8.53;;
11006;SDS011;8186;57.652;11.968;2022-09-28T03:28:44;9.37;;;8.40;;
11006;SDS011;8186;57.652;11.968;2022-09-28T03:31:10;9.77;;;8.77;;
11006;SDS011;8186;57.652;11.968;2022-09-28T03:33:39;9.40;;;8.40;;
11006;SDS011;8186;57.652;11.968;2022-09-28T03:36:05;10.43;;;9.30;;
11006;SDS011;8186;57.652;11.968;2022-09-28T03:38:34;10.27;;;9.07;;
11006;SDS011;8186;57.652;11.968;2022-09-28T03:41:00;10.67;;;9.10;;
11006;SDS011;8186;57.652;11.968;2022-09-28T03:43:28;10.67;;;9.60;;
11006;SDS011;8186;57.652;11.968;2022-09-28T03:45:56;10.67;;;9.77;;
11006;SDS011;8186;57.652;11.968;2022-09-28T03:48:24;10.80;;;9.80;;
11006;SDS011;8186;57.652;11.968;2022-09-28T03:50:53;10.70;;;9.70;;
11006;SDS011;8186;57.652;11.968;2022-09-28T03:53:21;10.87;;;9.87;;
11006;SDS011;8186;57.652;11.968;2022-09-28T03:55:48;11.33;;;10.33;;
11006;SDS011;8186;57.652;11.968;2022-09-28T03:58:17;10.50;;;9.60;;
11006;SDS011;8186;57.652;11.968;2022-09-28T04:00:44;10.63;;;9.47;;
11006;SDS011;8186;57.652;11.968;2022-09-28T04:03:11;11.80;;;10.17;;
11006;SDS011;8186;57.652;11.968;2022-09-28T04:05:38;10.77;;;9.87;;
11006;SDS011;8186;57.652;11.968;2022-09-28T04:08:06;10.63;;;9.63;;
11006;SDS011;8186;57.652;11.968;2022-09-28T04:10:33;10.47;;;9.43;;
11006;SDS011;8186;57.652;11.968;2022-09-28T04:13:00;11.10;;;10.00;;
11006;SDS011;8186;57.652;11.968;2022-09-28T04:15:26;11.40;;;10.40;;
11006;SDS011;8186;57.652;11.968;2022-09-28T04:17:54;10.70;;;9.80;;
11006;SDS011;8186;57.652;11.968;2022-09-28T04:20:23;11.20;;;10.20;;
11006;SDS011;8186;57.652;11.968;2022-09-28T04:22:50;10.50;;;9.60;;
11006;SDS011;8186;57.652;11.968;2022-09-28T04:25:18;11.20;;;10.20;;
11006;SDS011;8186;57.652;11.968;2022-09-28T04:27:45;11.60;;;10.00;;
11006;SDS011;8186;57.652;11.968;2022-09-28T04:30:30;10.73;;;9.73;;
11006;SDS011;8186;57.652;11.968;2022-09-28T04:32:56;11.73;;;9.33;;
11006;SDS011;8186;57.652;11.968;2022-09-28T04:35:23;10.80;;;9.73;;
11006;SDS011;8186;57.652;11.968;2022-09-28T04:37:50;13.00;;;10.60;;
11006;SDS011;8186;57.652;11.968;2022-09-28T04:40:18;11.27;;;10.23;;
11006;SDS011;8186;57.652;11.968;2022-09-28T04:42:51;9.87;;;9.07;;
11006;SDS011;8186;57.652;11.968;2022-09-28T04:45:19;10.70;;;9.70;;
11006;SDS011;8186;57.652;11.968;2022-09-28T04:47:45;10.87;;;9.83;;
11006;SDS011;8186;57.652;11.968;2022-09-28T04:50:12;11.80;;;10.60;;
11006;SDS011;8186;57.652;11.968;2022-09-28T04:52:39;10.33;;;9.40;;
11006;SDS011;8186;57.652;11.968;2022-09-28T04:55:07;12.03;;;9.93;;
11006;SDS011;8186;57.652;11.968;2022-09-28T04:57:38;10.83;;;9.83;;
11006;SDS011;8186;57.652;11.968;2022-09-28T05:00:05;10.30;;;9.33;;
11006;SDS011;8186;57.652;11.968;2022-09-28T05:02:33;11.53;;;10.33;;
11006;SDS011;8186;57.652;11.968;2022-09-28T05:05:00;10.47;;;9.57;;
11006;SDS011;8186;57.652;11.968;2022-09-28T05:07:27;10.27;;;9.37;;
11006;SDS011;8186;57.652;11.968;2022-09-28T05:09:55;10.77;;;9.77;;
11006;SDS011;8186;57.652;11.968;2022-09-28T05:12:22;10.60;;;9.60;;
11006;SDS011;8186;57.652;11.968;2022-09-28T05:14:50;10.53;;;9.53;;
11006;SDS011;8186;57.652;11.968;2022-09-28T05:17:17;9.73;;;8.87;;
11006;SDS011;8186;57.652;11.968;2022-09-28T05:19:44;10.37;;;9.27;;
11006;SDS011;8186;57.652;11.968;2022-09-28T05:22:11;11.40;;;10.27;;
11006;SDS011;8186;57.652;11.968;2022-09-28T05:24:39;10.93;;;10.03;;
11006;SDS011;8186;57.652;11.968;2022-09-28T05:27:06;10.87;;;9.97;;
11006;SDS011;8186;57.652;11.968;2022-09-28T05:29:33;10.47;;;9.50;;
11006;SDS011;8186;57.652;11.968;2022-09-28T05:32:01;10.27;;;9.43;;
11006;SDS011;8186;57.652;11.968;2022-09-28T05:34:28;10.00;;;9.10;;
11006;SDS011;8186;57.652;11.968;2022-09-28T05:36:55;9.53;;;8.67;;
11006;SDS011;8186;57.652;11.968;2022-09-28T05:39:22;10.10;;;9.20;;
11006;SDS011;8186;57.652;11.968;2022-09-28T05:41:49;10.80;;;9.70;;
11006;SDS011;8186;57.652;11.968;2022-09-28T05:44:15;11.10;;;10.00;;
11006;SDS011;8186;57.652;11.968;2022-09-28T05:46:42;10.63;;;9.73;;
11006;SDS011;8186;57.652;11.968;2022-09-28T05:49:10;9.83;;;9.00;;
11006;SDS011;8186;57.652;11.968;2022-09-28T05:51:38;10.10;;;9.20;;
11006;SDS011;8186;57.652;11.968;2022-09-28T05:54:05;10.13;;;9.13;;
11006;SDS011;8186;57.652;11.968;2022-09-28T05:56:32;10.10;;;9.20;;
11006;SDS011;8186;57.652;11.968;2022-09-28T05:58:58;10.40;;;9.30;;
11006;SDS011;8186;57.652;11.968;2022-09-28T06:01:25;10.47;;;9.37;;
11006;SDS011;8186;57.652;11.968;2022-09-28T06:03:52;9.53;;;8.80;;
11006;SDS011;8186;57.652;11.968;2022-09-28T06:06:20;9.23;;;8.50;;
11006;SDS011;8186;57.652;11.968;2022-09-28T06:08:47;9.93;;;9.13;;
11006;SDS011;8186;57.652;11.968;2022-09-28T06:11:14;10.17;;;9.27;;
11006;SDS011;8186;57.652;11.968;2022-09-28T06:13:41;10.10;;;9.30;;
11006;SDS011;8186;57.652;11.968;2022-09-28T06:16:08;9.67;;;8.73;;
11006;SDS011;8186;57.652;11.968;2022-09-28T06:18:40;12.33;;;9.47;;
11006;SDS011;8186;57.652;11.968;2022-09-28T06:21:06;9.53;;;8.73;;
11006;SDS011;8186;57.652;11.968;2022-09-28T06:23:36;10.10;;;9.10;;
11006;SDS011;8186;57.652;11.968;2022-09-28T06:26:03;10.10;;;9.07;;
11006;SDS011;8186;57.652;11.968;2022-09-28T06:28:30;9.77;;;8.87;;
11006;SDS011;8186;57.652;11.968;2022-09-28T06:30:58;10.40;;;9.37;;
11006;SDS011;8186;57.652;11.968;2022-09-28T06:33:25;9.57;;;8.77;;
11006;SDS011;8186;57.652;11.968;2022-09-28T06:35:52;9.37;;;8.60;;
11006;SDS011;8186;57.652;11.968;2022-09-28T06:38:19;9.50;;;8.70;;
11006;SDS011;8186;57.652;11.968;2022-09-28T06:40:47;9.20;;;8.30;;
11006;SDS011;8186;57.652;11.968;2022-09-28T06:43:14;9.27;;;8.47;;
11006;SDS011;8186;57.652;11.968;2022-09-28T06:45:41;8.93;;;8.13;;
11006;SDS011;8186;57.652;11.968;2022-09-28T06:48:09;9.43;;;8.63;;
11006;SDS011;8186;57.652;11.968;2022-09-28T06:50:38;9.10;;;8.20;;
11006;SDS011;8186;57.652;11.968;2022-09-28T06:53:06;9.77;;;8.90;;
11006;SDS011;8186;57.652;11.968;2022-09-28T06:55:36;9.50;;;8.60;;
11006;SDS011;8186;57.652;11.968;2022-09-28T06:58:05;9.67;;;8.87;;
11006;SDS011;8186;57.652;11.968;2022-09-28T07:00:35;9.47;;;8.57;;
11006;SDS011;8186;57.652;11.968;2022-09-28T07:03:03;9.70;;;8.90;;
11006;SDS011;8186;57.652;11.968;2022-09-28T07:05:32;9.43;;;8.63;;
11006;SDS011;8186;57.652;11.968;2022-09-28T07:08:01;9.90;;;8.90;;
11006;SDS011;8186;57.652;11.968;2022-09-28T07:10:28;9.60;;;8.73;;
11006;SDS011;8186;57.652;11.968;2022-09-28T07:12:56;9.80;;;9.00;;
11006;SDS011;8186;57.652;11.968;2022-09-28T07:15:28;10.03;;;9.13;;
11006;SDS011;8186;57.652;11.968;2022-09-28T07:17:57;10.37;;;9.47;;
11006;SDS011;8186;57.652;11.968;2022-09-28T07:20:24;10.60;;;9.60;;
11006;SDS011;8186;57.652;11.968;2022-09-28T07:22:54;10.73;;;9.73;;
11006;SDS011;8186;57.652;11.968;2022-09-28T07:25:21;10.80;;;9.80;;
11006;SDS011;8186;57.652;11.968;2022-09-28T07:27:49;10.23;;;9.33;;
11006;SDS011;8186;57.652;11.968;2022-09-28T07:30:16;10.73;;;9.73;;
11006;SDS011;8186;57.652;11.968;2022-09-28T07:32:45;10.80;;;9.80;;
11006;SDS011;8186;57.652;11.968;2022-09-28T07:35:12;10.60;;;9.60;;
11006;SDS011;8186;57.652;11.968;2022-09-28T07:37:39;10.77;;;9.73;;
11006;SDS011;8186;57.652;11.968;2022-09-28T07:40:06;11.23;;;10.17;;
11006;SDS011;8186;57.652;11.968;2022-09-28T07:42:51;11.20;;;10.10;;
11006;SDS011;8186;57.652;11.968;2022-09-28T07:45:18;10.30;;;9.40;;
11006;SDS011;8186;57.652;11.968;2022-09-28T07:47:49;10.97;;;9.97;;
11006;SDS011;8186;57.652;11.968;2022-09-28T07:50:16;10.87;;;9.83;;
11006;SDS011;8186;57.652;11.968;2022-09-28T07:52:43;10.20;;;9.40;;
11006;SDS011;8186;57.652;11.968;2022-09-28T07:55:10;11.60;;;10.50;;
11006;SDS011;8186;57.652;11.968;2022-09-28T07:57:36;11.93;;;10.83;;
11006;SDS011;8186;57.652;11.968;2022-09-28T08:00:04;11.60;;;10.50;;
11006;SDS011;8186;57.652;11.968;2022-09-28T08:02:33;10.60;;;9.70;;
11006;SDS011;8186;57.652;11.968;2022-09-28T08:05:01;10.73;;;9.83;;
11006;SDS011;8186;57.652;11.968;2022-09-28T08:07:28;11.03;;;10.03;;
11006;SDS011;8186;57.652;11.968;2022-09-28T08:09:56;10.73;;;9.73;;
11006;SDS011;8186;57.652;11.968;2022-09-28T08:12:23;11.20;;;10.20;;
11006;SDS011;8186;57.652;11.968;2022-09-28T08:14:50;10.63;;;9.73;;
11006;SDS011;8186;57.652;11.968;2022-09-28T08:17:17;10.77;;;9.30;;
11006;SDS011;8186;57.652;11.968;2022-09-28T08:19:44;11.17;;;10.17;;
11006;SDS011;8186;57.652;11.968;2022-09-28T08:22:30;10.40;;;9.53;;
11006;SDS011;8186;57.652;11.968;2022-09-28T08:24:57;11.27;;;10.27;;
11006;SDS011;8186;57.652;11.968;2022-09-28T08:27:24;10.40;;;9.50;;
11006;SDS011;8186;57.652;11.968;2022-09-28T08:29:51;10.73;;;9.40;;
11006;SDS011;8186;57.652;11.968;2022-09-28T08:32:18;9.90;;;9.00;;
11006;SDS011;8186;57.652;11.968;2022-09-28T08:34:45;9.70;;;8.80;;
11006;SDS011;8186;57.652;11.968;2022-09-28T08:37:12;9.93;;;9.03;;
11006;SDS011;8186;57.652;11.968;2022-09-28T08:39:40;9.47;;;8.57;;
11006;SDS011;8186;57.652;11.968;2022-09-28T08:42:12;10.33;;;9.43;;
11006;SDS011;8186;57.652;11.968;2022-09-28T08:44:43;9.37;;;8.47;;
11006;SDS011;8186;57.652;11.968;2022-09-28T08:47:13;9.27;;;8.47;;
11006;SDS011;8186;57.652;11.968;2022-09-28T08:49:56;9.27;;;8.47;;
11006;SDS011;8186;57.652;11.968;2022-09-28T08:52:25;8.53;;;7.80;;
11006;SDS011;8186;57.652;11.968;2022-09-28T08:54:57;9.50;;;8.70;;
11006;SDS011;8186;57.652;11.968;2022-09-28T08:57:28;8.63;;;7.93;;
11006;SDS011;8186;57.652;11.968;2022-09-28T08:59:57;8.83;;;8.03;;
11006;SDS011;8186;57.652;11.968;2022-09-28T09:02:26;8.63;;;7.77;;
11006;SDS011;8186;57.652;11.968;2022-09-28T09:04:55;8.73;;;7.93;;
11006;SDS011;8186;57.652;11.968;2022-09-28T09:07:37;9.03;;;7.90;;
11006;SDS011;8186;57.652;11.968;2022-09-28T09:10:18;8.13;;;7.43;;
11006;SDS011;8186;57.652;11.968;2022-09-28T09:12:55;8.00;;;7.30;;
11006;SDS011;8186;57.652;11.968;2022-09-28T09:15:32;9.60;;;7.37;;
11006;SDS011;8186;57.652;11.968;2022-09-28T09:18:11;8.20;;;7.40;;
11006;SDS011;8186;57.652;11.968;2022-09-28T09:20:44;8.63;;;7.93;;
11006;SDS011;8186;57.652;11.968;2022-09-28T09:23:15;7.80;;;7.10;;
11006;SDS011;8186;57.652;11.968;2022-09-28T09:25:47;7.67;;;7.07;;
11006;SDS011;8186;57.652;11.968;2022-09-28T09:28:33;7.77;;;6.97;;
11006;SDS011;8186;57.652;11.968;2022-09-28T09:31:14;7.43;;;6.80;;
11006;SDS011;8186;57.652;11.968;2022-09-28T09:33:50;7.47;;;6.77;;
11006;SDS011;8186;57.652;11.968;2022-09-28T09:36:35;7.30;;;6.60;;
11006;SDS011;8186;57.652;11.968;2022-09-28T09:39:17;6.47;;;5.90;;
11006;SDS011;8186;57.652;11.968;2022-09-28T09:41:55;7.07;;;6.37;;
11006;SDS011;8186;57.652;11.968;2022-09-28T09:44:36;6.30;;;5.80;;
11006;SDS011;8186;57.652;11.968;2022-09-28T09:47:27;6.60;;;6.10;;
11006;SDS011;8186;57.652;11.968;2022-09-28T09:49:58;6.47;;;5.87;;
11006;SDS011;8186;57.652;11.968;2022-09-28T09:52:30;7.17;;;6.57;;
11006;SDS011;8186;57.652;11.968;2022-09-28T09:55:01;7.27;;;6.57;;
11006;SDS011;8186;57.652;11.968;2022-09-28T09:57:31;6.53;;;5.70;;
11006;SDS011;8186;57.652;11.968;2022-09-28T10:00:01;6.30;;;5.70;;
11006;SDS011;8186;57.652;11.968;2022-09-28T10:02:30;6.97;;;5.60;;
11006;SDS011;8186;57.652;11.968;2022-09-28T10:04:59;6.30;;;5.70;;
11006;SDS011;8186;57.652;11.968;2022-09-28T10:07:32;6.33;;;5.70;;
11006;SDS011;8186;57.652;11.968;2022-09-28T10:10:09;6.73;;;6.03;;
11006;SDS011;8186;57.652;11.968;2022-09-28T10:12:38;6.47;;;5.90;;
11006;SDS011;8186;57.652;11.968;2022-09-28T10:15:05;6.27;;;5.67;;
11006;SDS011;8186;57.652;11.968;2022-09-28T10:17:33;7.63;;;5.93;;
11006;SDS011;8186;57.652;11.968;2022-09-28T10:20:02;5.87;;;5.27;;
11006;SDS011;8186;57.652;11.968;2022-09-28T10:22:30;6.70;;;6.20;;
11006;SDS011;8186;57.652;11.968;2022-09-28T10:24:56;6.70;;;6.10;;
11006;SDS011;8186;57.652;11.968;2022-09-28T10:27:25;6.63;;;5.97;;
11006;SDS011;8186;57.652;11.968;2022-09-28T10:29:56;8.53;;;6.33;;
11006;SDS011;8186;57.652;11.968;2022-09-28T10:32:25;6.47;;;5.97;;
11006;SDS011;8186;57.652;11.968;2022-09-28T10:35:10;6.40;;;5.80;;
11006;SDS011;8186;57.652;11.968;2022-09-28T10:37:45;6.33;;;5.43;;
11006;SDS011;8186;57.652;11.968;2022-09-28T10:43:05;2.93;;;1.97;;
11006;SDS011;8186;57.652;11.968;2022-09-28T10:45:35;2.00;;;1.90;;
11006;SDS011;8186;57.652;11.968;2022-09-28T10:48:03;1.93;;;1.60;;
11006;SDS011;8186;57.652;11.968;2022-09-28T10:50:31;1.80;;;1.70;;
11006;SDS011;8186;57.652;11.968;2022-09-28T10:53:09;1.43;;;1.33;;
11006;SDS011;8186;57.652;11.968;2022-09-28T10:55:37;1.63;;;1.50;;
11006;SDS011;8186;57.652;11.968;2022-09-28T10:58:16;1.40;;;1.30;;
11006;SDS011;8186;57.652;11.968;2022-09-28T11:00:51;3.07;;;1.50;;
11006;SDS011;8186;57.652;11.968;2022-09-28T11:03:21;1.47;;;1.37;;
11006;SDS011;8186;57.652;11.968;2022-09-28T11:05:52;2.90;;;1.77;;
11006;SDS011;8186;57.652;11.968;2022-09-28T11:08:21;2.57;;;1.60;;
11006;SDS011;8186;57.652;11.968;2022-09-28T11:10:59;2.50;;;1.70;;
11006;SDS011;8186;57.652;11.968;2022-09-28T11:13:27;3.00;;;1.90;;
11006;SDS011;8186;57.652;11.968;2022-09-28T11:15:56;1.80;;;1.70;;
11006;SDS011;8186;57.652;11.968;2022-09-28T11:18:27;4.37;;;1.80;;
11006;SDS011;8186;57.652;11.968;2022-09-28T11:21:08;3.00;;;1.90;;
11006;SDS011;8186;57.652;11.968;2022-09-28T11:23:38;3.77;;;2.53;;
11006;SDS011;8186;57.652;11.968;2022-09-28T11:26:05;3.73;;;3.10;;
11006;SDS011;8186;57.652;11.968;2022-09-28T11:28:34;2.87;;;2.67;;
11006;SDS011;8186;57.652;11.968;2022-09-28T11:31:03;3.77;;;3.17;;
11006;SDS011;8186;57.652;11.968;2022-09-28T11:33:32;3.13;;;2.80;;
11006;SDS011;8186;57.652;11.968;2022-09-28T11:36:14;3.80;;;3.50;;
11006;SDS011;8186;57.652;11.968;2022-09-28T11:38:49;3.63;;;3.23;;
11006;SDS011;8186;57.652;11.968;2022-09-28T11:41:23;4.23;;;3.20;;
11006;SDS011;8186;57.652;11.968;2022-09-28T11:44:08;4.10;;;3.80;;
11006;SDS011;8186;57.652;11.968;2022-09-28T11:46:46;5.50;;;5.00;;
11006;SDS011;8186;57.652;11.968;2022-09-28T11:49:24;5.90;;;5.10;;
11006;SDS011;8186;57.652;11.968;2022-09-28T11:51:55;5.87;;;5.37;;
11006;SDS011;8186;57.652;11.968;2022-09-28T11:54:23;9.27;;;5.77;;
11006;SDS011;8186;57.652;11.968;2022-09-28T11:56:53;6.00;;;5.40;;
11006;SDS011;8186;57.652;11.968;2022-09-28T11:59:23;6.40;;;5.80;;
11006;SDS011;8186;57.652;11.968;2022-09-28T12:01:54;6.33;;;5.73;;
11006;SDS011;8186;57.652;11.968;2022-09-28T12:04:23;8.13;;;5.53;;
11006;SDS011;8186;57.652;11.968;2022-09-28T12:06:52;6.97;;;5.77;;
11006;SDS011;8186;57.652;11.968;2022-09-28T12:09:25;6.00;;;5.50;;
11006;SDS011;8186;57.652;11.968;2022-09-28T12:11:55;6.77;;;5.80;;
11006;SDS011;8186;57.652;11.968;2022-09-28T12:14:25;5.70;;;5.17;;
11006;SDS011;8186;57.652;11.968;2022-09-28T12:16:56;5.40;;;4.90;;
11006;SDS011;8186;57.652;11.968;2022-09-28T12:19:28;5.10;;;4.70;;
11006;SDS011;8186;57.652;11.968;2022-09-28T12:21:58;5.93;;;5.03;;
11006;SDS011;8186;57.652;11.968;2022-09-28T12:24:30;5.43;;;4.83;;
11006;SDS011;8186;57.652;11.968;2022-09-28T12:27:01;5.33;;;4.50;;
11006;SDS011;8186;57.652;11.968;2022-09-28T12:29:31;5.17;;;4.67;;
11006;SDS011;8186;57.652;11.968;2022-09-28T12:32:03;4.70;;;4.30;;
11006;SDS011;8186;57.652;11.968;2022-09-28T12:34:36;5.07;;;4.57;;
11006;SDS011;8186;57.652;11.968;2022-09-28T12:37:10;6.33;;;4.93;;
11006;SDS011;8186;57.652;11.968;2022-09-28T12:39:52;4.17;;;3.87;;
11006;SDS011;8186;57.652;11.968;2022-09-28T12:42:32;5.03;;;4.53;;
11006;SDS011;8186;57.652;11.968;2022-09-28T12:45:14;4.00;;;3.70;;
11006;SDS011;8186;57.652;11.968;2022-09-28T12:50:49;4.93;;;4.00;;
11006;SDS011;8186;57.652;11.968;2022-09-28T12:53:31;5.37;;;4.10;;
11006;SDS011;8186;57.652;11.968;2022-09-28T12:56:21;4.63;;;4.20;;
11006;SDS011;8186;57.652;11.968;2022-09-28T12:58:54;4.20;;;3.90;;
11006;SDS011;8186;57.652;11.968;2022-09-28T13:01:36;5.43;;;4.10;;
11006;SDS011;8186;57.652;11.968;2022-09-28T13:04:18;4.30;;;4.00;;
11006;SDS011;8186;57.652;11.968;2022-09-28T13:06:53;4.70;;;4.20;;
11006;SDS011;8186;57.652;11.968;2022-09-28T13:09:22;5.13;;;3.73;;
11006;SDS011;8186;57.652;11.968;2022-09-28T13:11:54;4.60;;;4.20;;
11006;SDS011;8186;57.652;11.968;2022-09-28T13:17:33;4.97;;;3.60;;
11006;SDS011;8186;57.652;11.968;2022-09-28T13:20:10;4.37;;;4.07;;
11006;SDS011;8186;57.652;11.968;2022-09-28T13:22:46;4.30;;;3.87;;
11006;SDS011;8186;57.652;11.968;2022-09-28T13:25:17;4.00;;;3.70;;
11006;SDS011;8186;57.652;11.968;2022-09-28T13:27:47;3.40;;;3.20;;
11006;SDS011;8186;57.652;11.968;2022-09-28T13:30:17;4.00;;;3.70;;
11006;SDS011;8186;57.652;11.968;2022-09-28T13:32:44;5.43;;;4.13;;
11006;SDS011;8186;57.652;11.968;2022-09-28T13:35:12;4.97;;;3.70;;
11006;SDS011;8186;57.652;11.968;2022-09-28T13:37:39;4.17;;;3.77;;
11006;SDS011;8186;57.652;11.968;2022-09-28T13:40:08;4.83;;;4.17;;
11006;SDS011;8186;57.652;11.968;2022-09-28T13:42:39;4.03;;;3.60;;
11006;SDS011;8186;57.652;11.968;2022-09-28T13:45:31;4.30;;;3.43;;
11006;SDS011;8186;57.652;11.968;2022-09-28T13:48:09;3.70;;;3.40;;
11006;SDS011;8186;57.652;11.968;2022-09-28T13:53:39;3.97;;;3.07;;
11006;SDS011;8186;57.652;11.968;2022-09-28T13:56:25;4.60;;;3.40;;
11006;SDS011;8186;57.652;11.968;2022-09-28T13:58:56;4.60;;;3.23;;
11006;SDS011;8186;57.652;11.968;2022-09-28T14:01:27;4.03;;;3.20;;
11006;SDS011;8186;57.652;11.968;2022-09-28T14:04:08;5.37;;;3.27;;
11006;SDS011;8186;57.652;11.968;2022-09-28T14:06:37;5.03;;;3.43;;
11006;SDS011;8186;57.652;11.968;2022-09-28T14:09:18;4.77;;;3.37;;
11006;SDS011;8186;57.652;11.968;2022-09-28T14:11:55;3.83;;;3.30;;
11006;SDS011;8186;57.652;11.968;2022-09-28T14:14:23;3.90;;;3.10;;
11006;SDS011;8186;57.652;11.968;2022-09-28T14:20:14;4.57;;;3.37;;
11006;SDS011;8186;57.652;11.968;2022-09-28T14:22:44;3.30;;;3.00;;
11006;SDS011;8186;57.652;11.968;2022-09-28T14:25:22;3.90;;;3.20;;
11006;SDS011;8186;57.652;11.968;2022-09-28T14:28:01;4.13;;;2.93;;
11006;SDS011;8186;57.652;11.968;2022-09-28T14:30:44;3.87;;;3.57;;
11006;SDS011;8186;57.652;11.968;2022-09-28T14:33:20;4.47;;;3.20;;
11006;SDS011;8186;57.652;11.968;2022-09-28T14:35:50;3.23;;;3.00;;
11006;SDS011;8186;57.652;11.968;2022-09-28T14:38:21;4.00;;;3.20;;
11006;SDS011;8186;57.652;11.968;2022-09-28T14:41:07;4.23;;;3.50;;
11006;SDS011;8186;57.652;11.968;2022-09-28T14:43:59;3.50;;;3.20;;
11006;SDS011;8186;57.652;11.968;2022-09-28T14:46:29;3.27;;;2.97;;
11006;SDS011;8186;57.652;11.968;2022-09-28T14:48:58;3.93;;;2.97;;
11006;SDS011;8186;57.652;11.968;2022-09-28T14:54:28;7.63;;;2.67;;
11006;SDS011;8186;57.652;11.968;2022-09-28T14:57:05;3.40;;;3.10;;
11006;SDS011;8186;57.652;11.968;2022-09-28T14:59:40;3.07;;;2.77;;
11006;SDS011;8186;57.652;11.968;2022-09-28T15:02:11;4.30;;;3.10;;
11006;SDS011;8186;57.652;11.968;2022-09-28T15:04:41;3.33;;;2.93;;
11006;SDS011;8186;57.652;11.968;2022-09-28T15:07:17;3.30;;;2.60;;
11006;SDS011;8186;57.652;11.968;2022-09-28T15:09:46;3.13;;;2.70;;
11006;SDS011;8186;57.652;11.968;2022-09-28T15:12:15;3.33;;;2.90;;
11006;SDS011;8186;57.652;11.968;2022-09-28T15:14:45;3.40;;;2.97;;
11006;SDS011;8186;57.652;11.968;2022-09-28T15:17:17;5.77;;;2.60;;
11006;SDS011;8186;57.652;11.968;2022-09-28T15:19:46;3.60;;;2.77;;
11006;SDS011;8186;57.652;11.968;2022-09-28T15:22:19;4.83;;;2.60;;
11006;SDS011;8186;57.652;11.968;2022-09-28T15:24:52;2.73;;;2.53;;